KPNM

Princeton Municipal Airport

Princeton, Minnesota, USA
METAR KPNM 182255Z AUTO 18003KT 10SM SCT048 29/18 A3000 RMK AO2
Observed Flight Rules
Aug-18 @ 22:55 UTC (51 minutes ago) Visual Flight Rules
Wind Visibility Clouds
180° at 3 knots 10 miles
  • Scattered at 4,800' AGL
Temperatures Readings
Current 29°C / 84°F
Dewpoint 18°C / 64°F
Humidity 51%
Altimeter 30" Hg
Pressure 1016 hPa
Elevation 298
METAR KPNM 182255Z AUTO 18003KT 10SM SCT048 29/18 A3000 RMK AO2
Observed Flight Rules
Aug-18 @ 22:55 UTC
(51 minutes ago)
VFR
Wind Visibility
180° at 3 knots 10 miles
Clouds
  • Scattered at 4,800' AGL
Temperature Dewpoint
29°C / 84°F 18°C / 64°F
Humidity Altimeter Pressure
51% 30" Hg 1016 hPa